Time;durP1;ratioP1;P1;durP2;ratioP2;P2;SDS_P1;SDS_P2;PMS_P1;PMS_P2;Temp;Humidity;BMP_temperature;BMP_pressure;BME280_temperature;BME280_humidity;BME280_pressure;Samples;Min_cycle;Max_cycle;Signal;HPM_P1;HPM_P2
2022/03/03 00:01:39;;;;;;;21.57;18.27;;;2.90;99.90;;;;;;5036108;28;20840;-69
2022/03/03 00:04:05;;;;;;;18.57;16.50;;;2.90;99.90;;;;;;5034149;28;20436;-70
2022/03/03 00:06:31;;;;;;;24.07;19.50;;;3.00;99.90;;;;;;5036541;28;20405;-70
2022/03/03 00:08:57;;;;;;;22.67;19.10;;;3.10;99.90;;;;;;5035599;28;20174;-69
2022/03/03 00:11:22;;;;;;;21.73;17.90;;;3.00;99.90;;;;;;5036299;28;20409;-69
2022/03/03 00:13:49;;;;;;;23.80;19.47;;;2.90;99.90;;;;;;5035596;28;20167;-69
2022/03/03 00:16:14;;;;;;;22.50;17.07;;;2.90;99.90;;;;;;5036257;28;20659;-69
2022/03/03 00:18:40;;;;;;;23.53;19.77;;;2.90;99.90;;;;;;5035629;28;20409;-69
2022/03/03 00:21:06;;;;;;;20.70;18.10;;;3.00;99.90;;;;;;5034817;28;20190;-69
2022/03/03 00:23:32;;;;;;;23.00;19.00;;;3.00;99.90;;;;;;5035675;28;20414;-70
2022/03/03 00:25:58;;;;;;;22.37;18.77;;;2.90;99.90;;;;;;5035472;28;20461;-69
2022/03/03 00:28:24;;;;;;;20.77;18.60;;;2.90;99.90;;;;;;5036816;28;20166;-69
2022/03/03 00:30:50;;;;;;;22.77;19.50;;;2.80;99.90;;;;;;5035791;28;20774;-70
2022/03/03 00:33:15;;;;;;;20.23;17.93;;;2.70;99.90;;;;;;5036280;28;20406;-69
2022/03/03 00:35:41;;;;;;;24.50;20.37;;;2.80;99.90;;;;;;5036375;28;20202;-69
2022/03/03 00:38:09;;;;;;;24.00;21.10;;;2.60;99.90;;;;;;5035730;28;20740;-69
2022/03/03 00:40:34;;;;;;;21.47;19.10;;;2.60;99.90;;;;;;5037303;28;20258;-69
2022/03/03 00:43:00;;;;;;;27.83;20.40;;;2.60;99.90;;;;;;5038679;28;20513;-69
2022/03/03 00:45:25;;;;;;;21.83;19.53;;;2.70;99.90;;;;;;5038359;28;20202;-69
2022/03/03 00:47:51;;;;;;;22.37;18.60;;;2.60;99.90;;;;;;5038958;28;20257;-69
2022/03/03 00:50:17;;;;;;;23.93;20.30;;;2.60;99.90;;;;;;5036917;28;20661;-69
2022/03/03 00:52:42;;;;;;;23.57;19.70;;;2.60;99.90;;;;;;5036430;28;20185;-69
2022/03/03 00:55:08;;;;;;;20.30;17.00;;;2.60;99.90;;;;;;5036634;28;20186;-69
2022/03/03 00:57:34;;;;;;;21.80;19.50;;;2.60;99.90;;;;;;5036486;28;20165;-70
2022/03/03 01:00:02;;;;;;;25.50;20.00;;;2.60;99.90;;;;;;5034352;28;20446;-69
2022/03/03 01:02:28;;;;;;;21.70;19.40;;;2.60;99.90;;;;;;5036468;28;20162;-69
2022/03/03 01:04:53;;;;;;;23.97;20.77;;;2.50;99.90;;;;;;5035944;28;20437;-69
2022/03/03 01:07:19;;;;;;;24.90;21.50;;;2.50;99.90;;;;;;5038111;28;20209;-69
2022/03/03 01:09:44;;;;;;;25.53;18.70;;;2.50;99.90;;;;;;5036702;28;20212;-69
2022/03/03 01:12:10;;;;;;;23.63;19.70;;;2.50;99.90;;;;;;5038499;28;20167;-69
2022/03/03 01:14:35;;;;;;;26.10;21.57;;;2.40;99.90;;;;;;5037563;28;20280;-70
2022/03/03 01:17:01;;;;;;;21.40;19.13;;;2.40;99.90;;;;;;5040356;28;20185;-70
2022/03/03 01:19:27;;;;;;;25.07;20.87;;;2.40;99.90;;;;;;5041269;28;20191;-69
2022/03/03 01:21:52;;;;;;;24.13;19.53;;;2.50;99.90;;;;;;5039613;28;20170;-69
2022/03/03 01:24:18;;;;;;;25.63;20.60;;;2.50;99.90;;;;;;5039348;28;20281;-70
2022/03/03 01:26:44;;;;;;;27.30;21.47;;;2.40;99.90;;;;;;5039173;28;20258;-69
2022/03/03 01:29:10;;;;;;;27.60;22.03;;;2.30;99.90;;;;;;5038647;28;20202;-69
2022/03/03 01:31:35;;;;;;;29.33;22.13;;;2.30;99.90;;;;;;5038722;28;20197;-70
2022/03/03 01:34:01;;;;;;;24.53;21.03;;;2.20;99.90;;;;;;5038944;28;20480;-69
2022/03/03 01:36:27;;;;;;;24.60;21.20;;;2.20;99.90;;;;;;5038953;28;20744;-69
2022/03/03 01:38:52;;;;;;;23.17;20.67;;;2.20;99.90;;;;;;5037623;28;20181;-70
2022/03/03 01:41:18;;;;;;;24.90;22.30;;;2.20;99.90;;;;;;5038750;28;20282;-69
2022/03/03 01:43:44;;;;;;;25.17;20.57;;;2.20;99.90;;;;;;5037424;28;20503;-69
2022/03/03 01:46:09;;;;;;;22.47;20.17;;;2.20;99.90;;;;;;5020658;28;20208;-69
2022/03/03 01:48:35;;;;;;;26.70;21.80;;;2.20;99.90;;;;;;5019050;28;20269;-69
2022/03/03 01:51:01;;;;;;;25.80;21.53;;;2.30;99.90;;;;;;5019210;28;20258;-70
2022/03/03 01:53:26;;;;;;;24.27;21.60;;;2.20;99.90;;;;;;5019349;28;20629;-69
2022/03/03 01:55:53;;;;;;;26.70;23.03;;;2.30;99.90;;;;;;5019146;28;20196;-68
2022/03/03 01:58:18;;;;;;;25.43;21.33;;;2.40;99.90;;;;;;5022932;28;20582;-69
2022/03/03 02:00:44;;;;;;;25.00;22.30;;;2.40;99.90;;;;;;5036904;28;20440;-69
2022/03/03 02:03:11;;;;;;;26.40;21.70;;;2.40;99.90;;;;;;5038408;28;20202;-69
2022/03/03 02:05:37;;;;;;;26.43;22.50;;;2.40;99.90;;;;;;5038601;28;20430;-69
2022/03/03 02:08:03;;;;;;;37.73;23.40;;;2.30;99.90;;;;;;5038188;28;20427;-69
2022/03/03 02:10:31;;;;;;;24.73;21.90;;;2.30;99.90;;;;;;5038783;28;20765;-69
2022/03/03 02:12:57;;;;;;;23.60;19.60;;;2.30;99.90;;;;;;5040136;28;20411;-69
2022/03/03 02:15:22;;;;;;;24.03;21.27;;;2.20;99.90;;;;;;5038596;28;20517;-68
2022/03/03 02:17:48;;;;;;;28.60;23.40;;;2.20;99.90;;;;;;5039339;28;20175;-69
2022/03/03 02:20:22;;;;;;;23.70;21.10;;;2.20;99.90;;;;;;5038951;28;20238;-69
2022/03/03 02:22:52;;;;;;;26.20;21.23;;;2.20;99.90;;;;;;5037425;28;20404;-69
2022/03/03 02:25:17;;;;;;;29.63;24.30;;;2.20;99.90;;;;;;5038370;28;20432;-69
2022/03/03 02:27:44;;;;;;;28.80;23.00;;;2.00;99.90;;;;;;5037413;28;20448;-69
2022/03/03 02:30:15;;;;;;;26.83;22.20;;;2.10;99.90;;;;;;5038788;28;20182;-68
2022/03/03 02:32:40;;;;;;;27.67;21.53;;;2.00;99.90;;;;;;5040350;28;20443;-69
2022/03/03 02:35:07;;;;;;;31.80;23.03;;;2.10;99.90;;;;;;5038635;28;20434;-69
2022/03/03 02:37:42;;;;;;;25.50;22.03;;;2.10;99.90;;;;;;5038388;28;20184;-69
2022/03/03 02:40:10;;;;;;;28.80;21.87;;;2.00;99.90;;;;;;5036608;28;20484;-69
2022/03/03 02:42:36;;;;;;;23.00;20.50;;;2.00;99.90;;;;;;5052032;28;20416;-70
2022/03/03 02:45:04;;;;;;;27.17;22.53;;;2.10;99.90;;;;;;5036767;28;20436;-69
2022/03/03 02:47:29;;;;;;;23.73;20.63;;;2.10;99.90;;;;;;5037075;28;20408;-70
2022/03/03 02:49:55;;;;;;;24.40;20.03;;;2.20;99.90;;;;;;5037455;28;20571;-69
2022/03/03 02:52:21;;;;;;;24.27;21.40;;;2.20;99.90;;;;;;5037453;28;20419;-69
2022/03/03 02:54:46;;;;;;;28.80;23.67;;;2.10;99.90;;;;;;5037211;28;20183;-69
2022/03/03 02:59:56;;;;;;;26.57;22.73;;;2.00;99.90;;;;;;5036884;28;20247;-70
2022/03/03 03:02:22;;;;;;;28.73;23.33;;;1.90;99.90;;;;;;5035962;28;20788;-69
2022/03/03 03:04:48;;;;;;;24.27;21.10;;;1.90;99.90;;;;;;5037721;28;20187;-69
2022/03/03 03:07:13;;;;;;;25.97;21.20;;;1.90;99.90;;;;;;5036100;28;20181;-69
2022/03/03 03:09:39;;;;;;;24.23;20.33;;;1.90;99.90;;;;;;5037222;28;20174;-69
2022/03/03 03:12:05;;;;;;;27.10;22.80;;;1.90;99.90;;;;;;5035787;28;20168;-69
2022/03/03 03:14:31;;;;;;;25.00;22.00;;;1.80;99.90;;;;;;5035914;28;20201;-69
2022/03/03 03:16:56;;;;;;;25.00;20.93;;;1.70;99.90;;;;;;5034305;28;20404;-69
2022/03/03 03:19:22;;;;;;;26.37;21.43;;;1.70;99.90;;;;;;5034910;28;20442;-69
2022/03/03 03:21:47;;;;;;;23.97;21.40;;;1.80;99.90;;;;;;5035885;28;20165;-69
2022/03/03 03:24:13;;;;;;;27.20;20.90;;;1.80;99.90;;;;;;5035037;28;20185;-69
2022/03/03 03:26:39;;;;;;;26.57;21.90;;;1.70;99.90;;;;;;5037153;28;20264;-69
2022/03/03 03:29:05;;;;;;;28.40;22.20;;;1.60;99.90;;;;;;5036235;28;20401;-69
2022/03/03 03:31:30;;;;;;;23.87;19.70;;;1.60;99.90;;;;;;5037168;28;20642;-69
2022/03/03 03:33:56;;;;;;;24.50;20.00;;;1.70;99.90;;;;;;5037356;28;20162;-69
2022/03/03 03:36:22;;;;;;;24.27;21.17;;;1.60;99.90;;;;;;5036219;28;20162;-69
2022/03/03 03:38:47;;;;;;;22.60;20.07;;;1.60;99.90;;;;;;5036187;28;20230;-69
2022/03/03 03:41:13;;;;;;;24.30;20.63;;;1.60;99.90;;;;;;5035791;28;20565;-69
2022/03/03 03:43:39;;;;;;;27.63;23.00;;;1.50;99.90;;;;;;5035998;28;20206;-70
2022/03/03 03:46:05;;;;;;;28.70;21.43;;;1.50;99.90;;;;;;5035800;28;20258;-69
2022/03/03 03:48:30;;;;;;;27.37;23.17;;;1.50;99.90;;;;;;5034039;28;20414;-68
2022/03/03 03:50:56;;;;;;;26.43;22.10;;;1.50;99.90;;;;;;5035680;28;20240;-69
2022/03/03 03:53:22;;;;;;;25.47;21.67;;;1.50;99.90;;;;;;5035225;28;20555;-69
2022/03/03 03:55:48;;;;;;;24.17;20.80;;;1.50;99.90;;;;;;5035285;28;20193;-69
2022/03/03 03:58:13;;;;;;;23.70;20.40;;;1.50;99.90;;;;;;5035784;28;20178;-69
2022/03/03 04:00:39;;;;;;;28.57;21.40;;;1.50;99.90;;;;;;5035444;28;20516;-69
2022/03/03 04:03:05;;;;;;;24.20;19.40;;;1.50;99.90;;;;;;5035006;28;20181;-68
2022/03/03 04:05:31;;;;;;;25.97;23.00;;;1.60;99.90;;;;;;5033796;28;20775;-69
2022/03/03 04:07:56;;;;;;;25.57;21.97;;;1.50;99.90;;;;;;5035643;28;20173;-69
2022/03/03 04:10:22;;;;;;;24.83;20.53;;;1.50;99.90;;;;;;5034836;28;20630;-69
2022/03/03 04:12:48;;;;;;;26.03;21.00;;;1.40;99.90;;;;;;5034001;28;20257;-70
2022/03/03 04:15:13;;;;;;;25.20;21.50;;;1.40;99.90;;;;;;5035455;28;20433;-69
2022/03/03 04:17:40;;;;;;;28.20;23.00;;;1.40;99.90;;;;;;5034872;28;20200;-69
2022/03/03 04:20:07;;;;;;;27.97;22.70;;;1.40;99.90;;;;;;5035340;28;20602;-69
2022/03/03 04:22:34;;;;;;;26.23;22.37;;;1.50;99.90;;;;;;5035399;28;20400;-69
2022/03/03 04:24:59;;;;;;;32.37;22.27;;;1.50;99.90;;;;;;5035352;28;20425;-69
2022/03/03 04:27:25;;;;;;;24.30;19.97;;;1.60;99.90;;;;;;5035115;28;20409;-69
2022/03/03 04:29:51;;;;;;;23.60;20.20;;;1.50;99.90;;;;;;5034542;28;20243;-68
2022/03/03 04:32:16;;;;;;;23.87;19.87;;;1.60;99.90;;;;;;5034008;28;20630;-69
2022/03/03 04:34:42;;;;;;;29.23;22.93;;;1.50;99.90;;;;;;5033616;28;20190;-69
2022/03/03 04:37:08;;;;;;;25.17;20.20;;;1.50;99.90;;;;;;5031981;28;20364;-69
2022/03/03 04:39:34;;;;;;;26.60;22.30;;;1.50;99.90;;;;;;5015106;28;20186;-69
2022/03/03 04:41:59;;;;;;;28.90;23.40;;;1.40;99.90;;;;;;5016077;28;20414;-69
2022/03/03 04:44:25;;;;;;;32.33;21.10;;;1.40;99.90;;;;;;5039292;22;20205;-69
2022/03/03 04:46:50;;;;;;;30.70;23.63;;;1.40;99.90;;;;;;5012032;28;20186;-68
2022/03/03 04:49:16;;;;;;;29.20;22.93;;;1.40;99.90;;;;;;5013246;28;20632;-68
2022/03/03 04:51:42;;;;;;;29.90;23.43;;;1.50;99.90;;;;;;5015493;28;20220;-68
2022/03/03 04:54:08;;;;;;;25.80;21.47;;;1.50;99.90;;;;;;5016857;28;20641;-69
2022/03/03 04:56:35;;;;;;;26.53;21.07;;;1.40;99.90;;;;;;5016935;28;20280;-69
2022/03/03 04:59:01;;;;;;;31.57;22.57;;;1.40;99.90;;;;;;5008931;28;20480;-69
2022/03/03 05:01:26;;;;;;;25.23;22.53;;;1.30;99.90;;;;;;4997040;28;20803;-69
2022/03/03 05:03:52;;;;;;;29.23;22.40;;;1.30;99.90;;;;;;4995682;28;20345;-69
2022/03/03 05:06:18;;;;;;;28.80;21.53;;;1.40;99.90;;;;;;4999871;28;20440;-69
2022/03/03 05:08:43;;;;;;;31.23;23.03;;;1.30;99.90;;;;;;4997137;28;20543;-69
2022/03/03 05:11:09;;;;;;;35.83;23.70;;;1.30;99.90;;;;;;5007726;28;20193;-70
2022/03/03 05:13:36;;;;;;;25.80;22.13;;;1.20;99.90;;;;;;5016145;28;20265;-69
2022/03/03 05:16:03;;;;;;;34.03;24.30;;;1.20;99.90;;;;;;5031723;28;20437;-70
2022/03/03 05:18:29;;;;;;;31.50;25.57;;;1.20;99.90;;;;;;5016585;28;20446;-69
2022/03/03 05:20:55;;;;;;;26.03;22.83;;;1.20;99.90;;;;;;5016330;28;20440;-69
2022/03/03 05:23:21;;;;;;;28.67;25.50;;;1.20;99.90;;;;;;5003928;28;20976;-69
2022/03/03 05:25:47;;;;;;;30.90;24.07;;;1.20;99.90;;;;;;4996675;28;20423;-69
2022/03/03 05:28:12;;;;;;;28.47;23.73;;;1.20;99.90;;;;;;4996899;28;20174;-69
2022/03/03 05:30:38;;;;;;;29.17;22.77;;;1.20;99.90;;;;;;5015536;28;20183;-69
2022/03/03 05:33:04;;;;;;;30.90;24.77;;;1.20;99.90;;;;;;5016351;28;20166;-68
2022/03/03 05:35:30;;;;;;;35.10;24.97;;;1.20;99.90;;;;;;5014748;28;20280;-69
2022/03/03 05:37:55;;;;;;;37.83;25.67;;;1.20;99.90;;;;;;5016007;28;20398;-69
2022/03/03 05:40:21;;;;;;;33.70;23.87;;;1.20;99.90;;;;;;5016152;28;20216;-70
2022/03/03 05:42:47;;;;;;;32.13;25.63;;;1.20;99.90;;;;;;5016126;28;20173;-69
2022/03/03 05:45:12;;;;;;;30.17;22.80;;;1.20;99.90;;;;;;5014100;28;20212;-69
2022/03/03 05:47:38;;;;;;;30.70;24.57;;;1.20;99.90;;;;;;5015696;28;20685;-70
2022/03/03 05:50:05;;;;;;;34.90;25.70;;;1.20;99.90;;;;;;5015778;28;20171;-69
2022/03/03 05:52:31;;;;;;;28.47;23.37;;;1.10;99.90;;;;;;5015846;28;20416;-69
2022/03/03 05:54:57;;;;;;;32.60;25.47;;;1.10;99.90;;;;;;5015850;28;20430;-68
2022/03/03 05:57:38;;;;;;;34.57;26.80;;;1.00;99.90;;;;;;5015692;28;20178;-68
2022/03/03 06:00:12;;;;;;;33.93;23.60;;;0.90;99.90;;;;;;5015545;28;20864;-69
2022/03/03 06:02:44;;;;;;;32.53;24.83;;;0.90;99.90;;;;;;4990123;28;20816;-69
2022/03/03 06:05:09;;;;;;;28.70;23.83;;;1.00;99.90;;;;;;4976538;28;20413;-69
2022/03/03 06:07:42;;;;;;;32.70;25.53;;;1.10;99.90;;;;;;4977105;28;20815;-70
2022/03/03 06:10:08;;;;;;;27.83;22.27;;;1.20;99.90;;;;;;4976466;28;20163;-70
2022/03/03 06:12:40;;;;;;;30.43;23.77;;;1.20;99.90;;;;;;4976276;28;20437;-69
2022/03/03 06:15:06;;;;;;;31.73;24.77;;;1.20;99.90;;;;;;4976386;28;20566;-69
2022/03/03 06:17:34;;;;;;;32.40;25.40;;;1.20;99.90;;;;;;4975916;28;20930;-71
2022/03/03 06:20:00;;;;;;;27.90;22.87;;;1.20;99.90;;;;;;4976119;28;20817;-70
2022/03/03 06:22:26;;;;;;;29.80;24.10;;;1.30;99.90;;;;;;4974823;28;20944;-70
2022/03/03 06:24:52;;;;;;;29.93;23.57;;;1.30;99.90;;;;;;4976075;28;20896;-70
2022/03/03 06:27:18;;;;;;;30.53;22.77;;;1.30;99.90;;;;;;4976436;28;20762;-70
2022/03/03 06:29:43;;;;;;;28.70;22.97;;;1.30;99.90;;;;;;4975962;28;20165;-70
2022/03/03 06:32:10;;;;;;;28.03;23.73;;;1.30;99.90;;;;;;4987547;28;20210;-71
2022/03/03 06:34:36;;;;;;;28.63;23.67;;;1.40;99.90;;;;;;5013402;28;20205;-70
2022/03/03 06:37:02;;;;;;;28.20;21.80;;;1.40;99.90;;;;;;5014956;28;20422;-69
2022/03/03 06:39:27;;;;;;;26.50;22.90;;;1.40;99.90;;;;;;5015076;28;20449;-70
2022/03/03 06:41:53;;;;;;;27.80;22.83;;;1.30;99.90;;;;;;5015035;28;20644;-70
2022/03/03 06:44:20;;;;;;;35.00;22.37;;;1.30;99.90;;;;;;5013454;28;20565;-71
2022/03/03 06:46:46;;;;;;;30.33;26.33;;;1.30;99.90;;;;;;5015076;28;20268;-70
2022/03/03 06:49:12;;;;;;;28.60;22.60;;;1.30;99.90;;;;;;5014471;28;20433;-70
2022/03/03 06:51:43;;;;;;;27.37;22.23;;;1.30;99.90;;;;;;5014398;28;20400;-71
2022/03/03 06:54:14;;;;;;;26.30;21.90;;;1.40;99.90;;;;;;5014966;28;20386;-70
2022/03/03 06:56:55;;;;;;;27.70;22.37;;;1.50;99.90;;;;;;5014366;28;20508;-70
2022/03/03 06:59:26;;;;;;;24.30;21.73;;;1.70;99.90;;;;;;5014735;28;20834;-70
2022/03/03 07:01:54;;;;;;;25.33;21.50;;;1.70;99.90;;;;;;5012161;28;20506;-69
2022/03/03 07:04:20;;;;;;;33.77;23.63;;;1.70;99.90;;;;;;4994509;28;20414;-69
2022/03/03 07:06:47;;;;;;;29.07;24.27;;;1.70;99.90;;;;;;4994977;28;20911;-69
2022/03/03 07:09:13;;;;;;;27.30;22.97;;;1.70;99.90;;;;;;4994775;28;20473;-69
2022/03/03 07:11:42;;;;;;;29.77;21.97;;;1.70;99.90;;;;;;4994970;28;20421;-70
2022/03/03 07:14:09;;;;;;;30.87;24.00;;;1.90;99.90;;;;;;4994472;28;20772;-70
2022/03/03 07:16:43;;;;;;;27.40;21.30;;;1.90;99.90;;;;;;4994526;28;20424;-70
2022/03/03 07:19:53;;;;;;;26.23;22.27;;;2.00;99.90;;;;;;4994301;28;20535;-69
2022/03/03 07:22:34;;;;;;;26.30;21.83;;;2.10;99.90;;;;;;4973176;28;20423;-70
2022/03/03 07:25:06;;;;;;;28.57;23.97;;;2.10;99.90;;;;;;4973495;28;20462;-71
2022/03/03 07:27:33;;;;;;;29.33;23.53;;;2.10;99.90;;;;;;4986566;28;20744;-70
2022/03/03 07:30:12;;;;;;;30.83;24.30;;;2.30;99.90;;;;;;4994807;28;20406;-71
2022/03/03 07:32:45;;;;;;;29.33;24.40;;;2.30;99.90;;;;;;5000233;28;20424;-70
2022/03/03 07:35:15;;;;;;;30.20;23.33;;;2.20;99.90;;;;;;5013879;28;20426;-71
2022/03/03 07:37:54;;;;;;;33.00;27.05;;;2.20;99.90;;;;;;5013245;28;20414;-69
2022/03/03 07:40:20;;;;;;;26.63;23.70;;;2.50;99.90;;;;;;5014083;28;20592;-67
2022/03/03 07:42:46;;;;;;;26.43;23.20;;;2.70;99.90;;;;;;5013938;28;20403;-69
2022/03/03 07:45:12;;;;;;;27.53;24.30;;;2.90;99.90;;;;;;5013441;28;20212;-69
2022/03/03 07:47:39;;;;;;;31.37;24.00;;;3.20;99.90;;;;;;5012728;28;20537;-69
2022/03/03 07:50:06;;;;;;;30.43;25.40;;;3.30;99.90;;;;;;5013906;28;20403;-69
2022/03/03 07:52:32;;;;;;;32.20;25.80;;;3.50;99.90;;;;;;5013941;28;20403;-69
2022/03/03 07:54:58;;;;;;;32.47;26.33;;;3.60;99.90;;;;;;5014029;28;20419;-69
2022/03/03 07:57:32;;;;;;;29.90;25.60;;;3.70;99.90;;;;;;5006650;28;20984;-68
2022/03/03 08:00:04;;;;;;;28.60;23.10;;;3.80;99.90;;;;;;4988572;28;20678;-69
2022/03/03 08:02:32;;;;;;;31.13;24.23;;;3.90;99.90;;;;;;5014167;28;20414;-68
2022/03/03 08:05:01;;;;;;;32.30;24.87;;;4.00;99.90;;;;;;4999867;28;20527;-69
2022/03/03 08:07:27;;;;;;;31.10;24.53;;;3.90;99.90;;;;;;4994420;28;20458;-68
2022/03/03 08:09:58;;;;;;;28.63;24.47;;;3.70;99.90;;;;;;4982877;28;20463;-70
2022/03/03 08:12:25;;;;;;;28.93;23.60;;;3.80;99.90;;;;;;4974217;28;20393;-69
2022/03/03 08:14:52;;;;;;;34.10;24.90;;;4.00;99.90;;;;;;4977363;28;20425;-68
2022/03/03 08:17:18;;;;;;;30.07;24.23;;;4.10;99.90;;;;;;5013166;28;20402;-71
2022/03/03 08:19:45;;;;;;;26.27;23.20;;;4.30;99.90;;;;;;5013005;28;20462;-71
2022/03/03 08:22:13;;;;;;;29.40;25.50;;;4.50;99.90;;;;;;5013238;28;20953;-70
2022/03/03 08:24:43;;;;;;;35.03;24.50;;;4.60;99.90;;;;;;5012583;28;20419;-70
2022/03/03 08:27:15;;;;;;;27.47;23.47;;;4.70;99.90;;;;;;5013312;28;20915;-68
2022/03/03 08:29:40;;;;;;;29.47;24.43;;;4.80;99.90;;;;;;5013457;28;20391;-67
2022/03/03 08:32:11;;;;;;;29.80;24.43;;;4.90;99.90;;;;;;5013051;28;20414;-72
2022/03/03 08:34:50;;;;;;;29.60;24.50;;;5.00;99.90;;;;;;5013062;28;20192;-73
2022/03/03 08:37:28;;;;;;;31.23;26.33;;;4.70;99.90;;;;;;5013940;28;20479;-68
2022/03/03 08:39:58;;;;;;;29.87;24.67;;;4.20;99.90;;;;;;5013310;28;20453;-68
2022/03/03 08:42:27;;;;;;;32.60;25.40;;;4.00;99.90;;;;;;5013127;28;20399;-68
2022/03/03 08:44:58;;;;;;;27.80;24.03;;;4.00;99.90;;;;;;5012886;28;20493;-68
2022/03/03 08:47:25;;;;;;;35.73;26.43;;;3.90;99.90;;;;;;5012649;28;20403;-70
2022/03/03 08:50:05;;;;;;;35.53;26.00;;;4.00;99.90;;;;;;5013212;28;20411;-70
2022/03/03 08:52:31;;;;;;;31.93;25.60;;;4.10;99.90;;;;;;5013539;28;20847;-69
2022/03/03 08:54:56;;;;;;;42.07;28.40;;;4.20;99.90;;;;;;5013043;28;20431;-71
2022/03/03 08:57:22;;;;;;;33.40;27.60;;;4.20;99.90;;;;;;5012860;28;20720;-71
2022/03/03 08:59:48;;;;;;;32.23;25.73;;;4.20;99.90;;;;;;4992846;28;20200;-69
2022/03/03 09:02:16;;;;;;;29.03;25.20;;;4.30;99.90;;;;;;4993497;28;20173;-70
2022/03/03 09:04:44;;;;;;;34.53;24.70;;;4.50;99.90;;;;;;4992038;28;20556;-68
2022/03/03 09:07:09;;;;;;;33.60;25.27;;;4.70;99.90;;;;;;4993268;28;20400;-68
2022/03/03 09:09:35;;;;;;;28.77;23.83;;;4.70;99.90;;;;;;4993233;28;20431;-68
2022/03/03 09:12:01;;;;;;;26.53;23.27;;;4.70;99.90;;;;;;4993338;28;20176;-69
2022/03/03 09:14:27;;;;;;;27.50;24.30;;;4.90;99.90;;;;;;4993101;28;20168;-69
2022/03/03 09:16:53;;;;;;;32.40;25.63;;;5.20;99.90;;;;;;4993396;28;20404;-68
2022/03/03 09:19:20;;;;;;;28.20;25.17;;;5.20;99.90;;;;;;4992900;28;20404;-69
2022/03/03 09:21:45;;;;;;;32.20;23.80;;;5.40;99.90;;;;;;4993294;28;20165;-68
2022/03/03 09:24:11;;;;;;;29.67;24.77;;;5.50;99.90;;;;;;4993038;28;20792;-69
2022/03/03 09:26:36;;;;;;;32.10;26.97;;;5.50;99.90;;;;;;4992805;28;20192;-70
2022/03/03 09:29:02;;;;;;;34.00;25.23;;;5.50;99.90;;;;;;4992619;28;20176;-69
2022/03/03 09:31:28;;;;;;;28.97;25.80;;;5.30;99.90;;;;;;4993445;28;20161;-70
2022/03/03 09:33:54;;;;;;;30.77;25.57;;;5.30;99.90;;;;;;4992773;28;20404;-70
2022/03/03 09:36:19;;;;;;;32.13;26.30;;;5.30;99.90;;;;;;4993557;28;20196;-71
2022/03/03 09:38:45;;;;;;;30.47;25.73;;;5.40;99.90;;;;;;4996346;28;20184;-71
2022/03/03 09:41:11;;;;;;;27.50;24.50;;;5.50;99.90;;;;;;4996342;28;20196;-70
2022/03/03 09:43:42;;;;;;;35.10;26.73;;;5.60;99.90;;;;;;4996967;28;20408;-70
2022/03/03 09:46:09;;;;;;;31.03;26.47;;;5.70;99.90;;;;;;4995031;28;20451;-71
2022/03/03 09:48:36;;;;;;;32.30;25.90;;;5.90;99.90;;;;;;4996381;28;20410;-69
2022/03/03 09:51:02;;;;;;;32.10;26.33;;;5.90;99.90;;;;;;4996006;28;20404;-70
2022/03/03 09:53:27;;;;;;;39.27;26.73;;;5.90;99.90;;;;;;5014733;28;20406;-69
2022/03/03 09:55:53;;;;;;;29.33;25.83;;;5.90;99.90;;;;;;5015749;28;20438;-71
2022/03/03 09:58:19;;;;;;;35.80;27.10;;;6.00;99.90;;;;;;5016326;28;20223;-70
2022/03/03 10:00:46;;;;;;;32.23;27.27;;;6.30;99.90;;;;;;5016066;28;20223;-71
2022/03/03 10:03:14;;;;;;;32.70;27.47;;;6.60;99.90;;;;;;5016048;28;20399;-70
2022/03/03 10:05:47;;;;;;;36.33;28.30;;;6.60;99.90;;;;;;5014956;28;20434;-69
2022/03/03 10:08:17;;;;;;;33.90;27.87;;;6.70;99.90;;;;;;4976332;28;20385;-69
2022/03/03 10:10:46;;;;;;;31.23;25.43;;;7.00;99.90;;;;;;4976853;28;20393;-69
2022/03/03 10:13:16;;;;;;;30.83;26.00;;;7.10;99.90;;;;;;4976697;28;20495;-70
2022/03/03 10:15:44;;;;;;;33.10;26.97;;;7.20;99.90;;;;;;4976474;28;20428;-69
2022/03/03 10:18:12;;;;;;;33.50;24.60;;;7.30;99.90;;;;;;4982118;28;20411;-69
2022/03/03 10:20:46;;;;;;;30.53;26.40;;;7.40;99.90;;;;;;4995616;28;20455;-69
2022/03/03 10:23:12;;;;;;;32.50;24.17;;;7.30;99.40;;;;;;4995575;28;20420;-68
2022/03/03 10:25:41;;;;;;;28.30;25.20;;;7.20;99.80;;;;;;4995970;28;20474;-67
2022/03/03 10:28:18;;;;;;;28.63;24.40;;;7.00;99.50;;;;;;4995730;28;20612;-69
2022/03/03 10:31:06;;;;;;;28.90;23.30;;;7.20;99.90;;;;;;4994244;28;20407;-69
2022/03/03 10:33:44;;;;;;;30.50;23.33;;;7.20;99.20;;;;;;4995874;28;20396;-69
2022/03/03 10:36:24;;;;;;;30.67;23.90;;;7.30;98.80;;;;;;4995028;28;20427;-71
2022/03/03 10:38:51;;;;;;;29.50;23.93;;;7.50;99.10;;;;;;4995600;28;20471;-69
2022/03/03 10:41:53;;;;;;;28.57;23.13;;;7.70;98.30;;;;;;4995398;28;20468;-70
2022/03/03 10:44:27;;;;;;;27.47;22.53;;;7.80;98.00;;;;;;4984097;28;20450;-69
2022/03/03 10:47:07;;;;;;;27.43;21.57;;;7.80;97.50;;;;;;5071913;22;20480;-68
2022/03/03 10:49:34;;;;;;;26.33;23.00;;;7.70;97.40;;;;;;5057441;28;20417;-70
2022/03/03 10:52:10;;;;;;;26.73;23.40;;;7.80;97.00;;;;;;5057122;28;20429;-69
2022/03/03 10:54:47;;;;;;;25.07;22.13;;;7.70;97.20;;;;;;5057395;28;20401;-69
2022/03/03 10:57:36;;;;;;;27.53;21.30;;;7.90;97.50;;;;;;5063281;28;20420;-68
2022/03/03 11:00:23;;;;;;;26.17;23.37;;;8.10;96.70;;;;;;5055511;28;20468;-70
2022/03/03 11:02:57;;;;;;;28.33;22.00;;;8.30;96.40;;;;;;5055728;28;20398;-71
2022/03/03 11:05:25;;;;;;;26.07;23.27;;;8.40;96.20;;;;;;5053563;28;20963;-70
2022/03/03 11:07:53;;;;;;;26.30;21.93;;;8.70;96.10;;;;;;5053670;28;20512;-71
2022/03/03 11:10:21;;;;;;;26.03;21.70;;;8.80;95.80;;;;;;5055938;28;20410;-70
2022/03/03 11:12:47;;;;;;;24.47;21.23;;;8.90;95.60;;;;;;5057194;28;20466;-70
2022/03/03 11:15:15;;;;;;;25.17;21.93;;;9.20;94.80;;;;;;5057041;28;20419;-70
2022/03/03 11:17:41;;;;;;;29.47;23.30;;;9.10;94.80;;;;;;5054298;28;20413;-69
2022/03/03 11:20:11;;;;;;;25.67;21.50;;;9.10;94.20;;;;;;5051501;28;20449;-70
2022/03/03 11:22:38;;;;;;;28.87;23.40;;;9.20;93.60;;;;;;5053488;28;20873;-70
2022/03/03 11:25:14;;;;;;;28.60;22.30;;;9.70;93.50;;;;;;5053494;28;20559;-70
2022/03/03 11:27:41;;;;;;;27.57;23.30;;;11.30;91.80;;;;;;5053632;28;20454;-70
2022/03/03 11:30:18;;;;;;;25.10;22.30;;;13.30;87.00;;;;;;5053744;28;20782;-69
2022/03/03 11:32:45;;;;;;;25.93;21.60;;;14.80;79.10;;;;;;5053883;28;20491;-70
2022/03/03 11:35:14;;;;;;;24.93;22.23;;;16.40;70.70;;;;;;5052296;28;20450;-70
2022/03/03 11:37:44;;;;;;;24.93;22.07;;;16.50;66.40;;;;;;5053850;28;20546;-69
2022/03/03 11:40:12;;;;;;;24.17;21.60;;;16.10;65.50;;;;;;5053487;28;20439;-69
2022/03/03 11:42:55;;;;;;;27.20;21.73;;;15.70;65.70;;;;;;5053227;28;20919;-69
2022/03/03 11:45:34;;;;;;;27.90;22.30;;;17.40;61.40;;;;;;5051925;28;20452;-69
2022/03/03 11:48:12;;;;;;;23.77;21.30;;;18.10;58.10;;;;;;5054894;28;20792;-70
2022/03/03 11:50:38;;;;;;;23.27;20.80;;;18.00;55.20;;;;;;5063007;28;20409;-70
2022/03/03 11:53:10;;;;;;;25.67;22.23;;;17.50;55.20;;;;;;5052706;28;20959;-70
2022/03/03 11:55:41;;;;;;;23.50;20.90;;;17.30;55.90;;;;;;5053674;28;20413;-70
2022/03/03 11:58:11;;;;;;;24.23;20.80;;;18.40;55.50;;;;;;5053259;28;20385;-69
2022/03/03 12:01:13;;;;;;;22.67;20.37;;;19.30;52.70;;;;;;5052413;28;20456;-70
2022/03/03 12:04:02;;;;;;;25.00;22.30;;;18.90;50.60;;;;;;5020779;28;20436;-68
2022/03/03 12:06:43;;;;;;;26.23;21.60;;;16.90;53.30;;;;;;5038591;28;20475;-66
2022/03/03 12:09:29;;;;;;;29.80;21.47;;;16.60;53.90;;;;;;5039281;28;20478;-71
2022/03/03 12:12:16;;;;;;;29.27;21.17;;;15.50;55.80;;;;;;5027408;28;20457;-70
2022/03/03 12:14:59;;;;;;;23.43;20.30;;;16.60;55.60;;;;;;5027148;28;20409;-69
2022/03/03 12:17:43;;;;;;;23.93;21.53;;;17.70;54.10;;;;;;5033019;28;20406;-68
2022/03/03 12:20:24;;;;;;;25.60;21.73;;;18.20;53.10;;;;;;5023781;28;20452;-67
2022/03/03 12:23:03;;;;;;;24.13;21.60;;;17.30;53.50;;;;;;5030465;28;20914;-68
2022/03/03 12:25:50;;;;;;;23.60;21.27;;;18.30;52.80;;;;;;5032972;28;20436;-70
2022/03/03 12:28:17;;;;;;;25.83;21.77;;;17.30;53.30;;;;;;5031634;28;20446;-68
2022/03/03 12:30:44;;;;;;;23.37;21.00;;;18.40;53.40;;;;;;5033444;28;20901;-69
2022/03/03 12:33:23;;;;;;;23.80;21.30;;;19.70;50.70;;;;;;5032800;28;20425;-68
2022/03/03 12:35:50;;;;;;;24.23;21.73;;;17.60;51.40;;;;;;5031488;28;20803;-71
2022/03/03 12:38:15;;;;;;;25.30;22.63;;;18.80;52.60;;;;;;5052119;28;20408;-68
2022/03/03 12:40:42;;;;;;;23.10;20.80;;;18.40;50.40;;;;;;5052619;28;20529;-69
2022/03/03 12:43:15;;;;;;;24.47;22.00;;;18.40;51.80;;;;;;5052590;28;20619;-69
2022/03/03 12:45:41;;;;;;;23.40;21.10;;;19.00;50.50;;;;;;5052892;28;20822;-69